Helas — C4AZ2 — position and weather

sailwx.info

Track history (hours):
 
Tides and Currents Weather Stations Pressure Air Temp Water Temp Dewpoint Dewpoint Depression Visibility Wind Speed Wind Dir Waves Ship Positions

Helas

Last reported at 2016-Sep-24 09:32 UTC. Time now 2016-Sep-26 03:45 UTC.
Position N 48°51' W 005°47'.

Length 89 m; draft 5.8 m.

Type: Cargo ship. MMSI: 210031000.

Date/timePositionNaut miles runAvg speedWind from/ knotsBaromVisibWave heightAir tempDewpointWater temp
2016-Sep-24 09:32N 48°51' W 005°47'41 6.9
2016-Sep-24 03:31N 49°13' W 004°53'9 9.3
2016-Sep-24 02:33N 49°17' W 004°41'9 8.8
2016-Sep-24 01:29N 49°22' W 004°28'8 8.4
2016-Sep-24 00:30N 49°26' W 004°17'41 8.3
2016-Sep-23 19:33N 49°47' W 003°22'2110.5
2016-Sep-23 17:33N 49°57' W 002°54'69 8.2
2016-Sep-23 09:04N 50°31' W 001°19'23 9.0
2016-Sep-23 06:33N 50°34' W 000°44'2110.6
2016-Sep-23 04:32N 50°32' W 000°11'9 9.2
2016-Sep-23 03:33N 50°32' E 000°03'9 8.6
2016-Sep-23 02:33N 50°35' E 000°16'54 9.0
2016-Sep-22 20:33N 51°04' E 001°28'136 8.5
2016-Sep-22 04:33N 52°30' E 004°19'9 9.2
2016-Sep-22 03:33N 52°28' E 004°33'3 0.9
2016-Sep-22 00:32N 52°28' E 004°38'0 0.0
2016-Sep-21 23:32N 52°28' E 004°38'0 0.0
2016-Sep-21 22:32N 52°28' E 004°38'0 0.0
2016-Sep-21 19:32N 52°28' E 004°38'0 0.0
2016-Sep-21 16:31N 52°28' E 004°38'0 0.0
2016-Sep-21 08:33N 52°28' E 004°38'20 6.5
2016-Sep-21 05:33N 52°28' E 004°06'15 7.7
2016-Sep-21 03:33N 52°23' E 003°42'63 6.3
2016-Sep-20 17:33N 51°38' E 002°28'23 7.7
2016-Sep-20 14:33N 51°19' E 002°08'8 8.4
2016-Sep-20 13:33N 51°12' E 001°60'26 8.6
2016-Sep-20 10:33N 50°54' E 001°31'62 7.7
2016-Sep-20 02:32N 50°19' E 000°11'25 8.2
2016-Sep-19 23:26N 50°12' W 000°28'92 9.3
2016-Sep-19 13:30N 49°49' W 002°46'17 9.0
2016-Sep-19 11:33N 49°40' W 003°10'10711.8
2016-Sep-19 02:26N 48°46' W 005°32'18 9.0
2016-Sep-19 00:24N 48°29' W 005°40'39 8.1
2016-Sep-18 19:30N 47°52' W 005°20'36 9.0
2016-Sep-18 15:31N 47°18' W 005°03'5210.1
2016-Sep-18 10:20N 46°28' W 004°37'  
2016-Sep-16 03:33N 43°45' W 005°28'9 9.2
2016-Sep-16 02:32N 43°46' W 005°41'18 9.1
2016-Sep-16 00:31N 43°48' W 006°06'54 9.0
2016-Sep-15 18:33N 43°49' W 007°21'  
Track history (hours):
 
Tides and Currents Weather Stations Pressure Air Temp Water Temp Dewpoint Dewpoint Depression Visibility Wind Speed Wind Dir Waves Ship Positions

Helas

Last reported at 2016-Sep-24 09:32 UTC. Time now 2016-Sep-26 03:45 UTC.
Position N 48°51' W 005°47'.

Length 89 m; draft 5.8 m.

Type: Cargo ship. MMSI: 210031000.

Date/timePositionNaut miles runAvg speedWind from/ knotsBaromVisibWave heightAir tempDewpointWater temp
2016-Sep-24 09:32N 48°51' W 005°47'41 6.9
2016-Sep-24 03:31N 49°13' W 004°53'9 9.3
2016-Sep-24 02:33N 49°17' W 004°41'9 8.8
2016-Sep-24 01:29N 49°22' W 004°28'8 8.4
2016-Sep-24 00:30N 49°26' W 004°17'41 8.3
2016-Sep-23 19:33N 49°47' W 003°22'2110.5
2016-Sep-23 17:33N 49°57' W 002°54'69 8.2
2016-Sep-23 09:04N 50°31' W 001°19'23 9.0
2016-Sep-23 06:33N 50°34' W 000°44'2110.6
2016-Sep-23 04:32N 50°32' W 000°11'9 9.2
2016-Sep-23 03:33N 50°32' E 000°03'9 8.6
2016-Sep-23 02:33N 50°35' E 000°16'54 9.0
2016-Sep-22 20:33N 51°04' E 001°28'136 8.5
2016-Sep-22 04:33N 52°30' E 004°19'9 9.2
2016-Sep-22 03:33N 52°28' E 004°33'3 0.9
2016-Sep-22 00:32N 52°28' E 004°38'0 0.0
2016-Sep-21 23:32N 52°28' E 004°38'0 0.0
2016-Sep-21 22:32N 52°28' E 004°38'0 0.0
2016-Sep-21 19:32N 52°28' E 004°38'0 0.0
2016-Sep-21 16:31N 52°28' E 004°38'0 0.0
2016-Sep-21 08:33N 52°28' E 004°38'20 6.5
2016-Sep-21 05:33N 52°28' E 004°06'15 7.7
2016-Sep-21 03:33N 52°23' E 003°42'63 6.3
2016-Sep-20 17:33N 51°38' E 002°28'23 7.7
2016-Sep-20 14:33N 51°19' E 002°08'8 8.4
2016-Sep-20 13:33N 51°12' E 001°60'26 8.6
2016-Sep-20 10:33N 50°54' E 001°31'62 7.7
2016-Sep-20 02:32N 50°19' E 000°11'25 8.2
2016-Sep-19 23:26N 50°12' W 000°28'92 9.3
2016-Sep-19 13:30N 49°49' W 002°46'17 9.0
2016-Sep-19 11:33N 49°40' W 003°10'10711.8
2016-Sep-19 02:26N 48°46' W 005°32'18 9.0
2016-Sep-19 00:24N 48°29' W 005°40'39 8.1
2016-Sep-18 19:30N 47°52' W 005°20'36 9.0
2016-Sep-18 15:31N 47°18' W 005°03'5210.1
2016-Sep-18 10:20N 46°28' W 004°37'  
2016-Sep-16 03:33N 43°45' W 005°28'9 9.2
2016-Sep-16 02:32N 43°46' W 005°41'18 9.1
2016-Sep-16 00:31N 43°48' W 006°06'54 9.0
2016-Sep-15 18:33N 43°49' W 007°21'  

Dump ship's entire track history